createdAt,value
2017-11-21T00:00:00.833Z,99508.25
2017-11-21T00:02:27.137Z,99509.11
2017-11-21T00:04:53.440Z,99512.27
2017-11-21T00:07:19.730Z,99512.36
2017-11-21T00:09:46.027Z,99510.50
2017-11-21T00:12:12.320Z,99511.45
2017-11-21T00:14:38.664Z,99497.49
2017-11-21T00:17:05.027Z,99496.52
2017-11-21T00:19:31.320Z,99493.70
2017-11-21T00:21:57.595Z,99492.02
2017-11-21T00:24:23.961Z,99484.45
2017-11-21T00:26:50.299Z,99477.05
2017-11-21T00:29:16.606Z,99474.11
2017-11-21T00:31:43.668Z,99470.11
2017-11-21T00:34:09.998Z,99458.33
2017-11-21T00:36:36.293Z,99459.77
2017-11-21T00:39:02.723Z,99464.02
2017-11-21T00:41:28.979Z,99463.38
2017-11-21T00:43:55.309Z,99459.16
2017-11-21T00:46:21.745Z,99462.67
2017-11-21T00:48:48.768Z,99459.22
2017-11-21T00:51:15.084Z,99446.94
2017-11-21T00:53:41.385Z,99443.55
2017-11-21T00:56:07.678Z,99443.55
2017-11-21T00:58:34.765Z,99452.79
2017-11-21T01:01:01.089Z,99448.71
2017-11-21T01:03:27.426Z,99439.41
2017-11-21T01:05:53.722Z,99438.86
2017-11-21T01:08:20.054Z,99439.53
2017-11-21T01:10:47.138Z,99443.30
2017-11-21T01:13:13.421Z,99445.87
2017-11-21T01:15:40.522Z,99449.71
2017-11-21T01:18:06.853Z,99450.67
2017-11-21T01:20:33.168Z,99448.39
2017-11-21T01:22:59.488Z,99442.56
2017-11-21T01:25:25.772Z,99437.35
2017-11-21T01:27:52.092Z,99431.89
2017-11-21T01:30:18.396Z,99436.70
2017-11-21T01:32:44.733Z,99429.98
2017-11-21T01:35:11.025Z,99418.20
2017-11-21T01:37:38.072Z,99414.75
2017-11-21T01:40:05.152Z,99410.32
2017-11-21T01:42:31.514Z,99404.14
2017-11-21T01:44:57.813Z,99413.95
2017-11-21T01:47:24.141Z,99404.38
2017-11-21T01:49:50.440Z,99403.87
2017-11-21T01:52:17.495Z,99400.33
2017-11-21T01:54:44.509Z,99402.56
2017-11-21T01:57:10.845Z,99400.01
2017-11-21T01:59:37.133Z,99389.08
2017-11-21T02:02:03.493Z,99391.45
2017-11-21T02:04:29.799Z,99397.08
2017-11-21T02:06:56.140Z,99388.61
2017-11-21T02:09:22.458Z,99385.78
2017-11-21T02:11:48.796Z,99387.77
2017-11-21T02:14:15.084Z,99383.64
2017-11-21T02:16:42.130Z,99377.50
2017-11-21T02:19:09.233Z,99382.61
2017-11-21T02:21:35.568Z,99381.16
2017-11-21T02:24:01.873Z,99376.98
2017-11-21T02:26:28.178Z,99379.12
2017-11-21T02:28:55.255Z,99378.61
2017-11-21T02:31:21.557Z,99378.28
2017-11-21T02:33:48.614Z,99382.80
2017-11-21T02:36:14.895Z,99380.94
2017-11-21T02:38:42.041Z,99379.22
2017-11-21T02:41:08.347Z,99380.14
2017-11-21T02:43:35.264Z,99380.47
2017-11-21T02:46:02.335Z,99382.09
2017-11-21T02:48:28.643Z,99384.80
2017-11-21T02:50:55.717Z,99375.45
2017-11-21T02:53:22.065Z,99372.70
2017-11-21T02:55:48.394Z,99361.34
2017-11-21T02:58:14.721Z,99361.20
2017-11-21T03:00:41.033Z,99360.52
2017-11-21T03:03:07.398Z,99358.75
2017-11-21T03:05:33.714Z,99356.05
2017-11-21T03:08:00.025Z,99348.88
2017-11-21T03:10:26.390Z,99349.61
2017-11-21T03:12:53.468Z,99347.41
2017-11-21T03:15:19.802Z,99348.89
2017-11-21T03:17:46.120Z,99348.91
2017-11-21T03:20:31.078Z,99344.86
2017-11-21T03:23:17.561Z,99342.84
2017-11-21T03:28:56.903Z,99340.93
2017-11-21T03:31:23.195Z,99344.05
2017-11-21T03:33:49.489Z,99336.03
2017-11-21T03:36:15.831Z,99346.45
2017-11-21T03:38:42.216Z,99337.91
2017-11-21T03:41:09.280Z,99336.60
2017-11-21T03:43:35.611Z,99337.06
2017-11-21T03:46:02.026Z,99334.27
2017-11-21T03:48:29.110Z,99339.63
2017-11-21T03:50:55.439Z,99338.05
2017-11-21T03:53:21.770Z,99328.00
2017-11-21T03:55:48.107Z,99341.55
2017-11-21T03:58:14.398Z,99337.44
2017-11-21T04:00:41.480Z,99336.19
2017-11-21T04:03:07.803Z,99332.92
2017-11-21T04:05:34.140Z,99333.91
2017-11-21T04:08:00.451Z,99331.30
2017-11-21T04:10:26.869Z,99332.23
2017-11-21T04:12:53.921Z,99331.77
2017-11-21T04:15:20.970Z,99336.70
2017-11-21T04:17:47.322Z,99336.23
2017-11-21T04:20:13.659Z,99335.72
2017-11-21T04:22:40.580Z,99335.40
2017-11-21T04:25:07.824Z,99339.53
2017-11-21T04:27:34.818Z,99334.38
2017-11-21T04:30:01.129Z,99335.77
2017-11-21T04:32:27.488Z,99334.09
2017-11-21T04:34:53.880Z,99330.41
2017-11-21T04:37:20.166Z,99328.52
2017-11-21T04:39:46.534Z,99325.48
2017-11-21T04:42:13.715Z,99324.73
2017-11-21T04:44:40.088Z,99325.30
2017-11-21T04:47:06.497Z,99325.03
2017-11-21T04:49:32.946Z,99323.31
2017-11-21T04:51:59.408Z,99322.17
2017-11-21T04:54:26.667Z,99311.23
2017-11-21T04:56:53.759Z,99320.75
2017-11-21T04:59:20.059Z,99324.00
2017-11-21T05:01:46.431Z,99321.41
2017-11-21T05:04:12.806Z,99312.28
2017-11-21T05:06:39.257Z,99314.19
2017-11-21T05:09:05.653Z,99307.58
2017-11-21T05:11:32.076Z,99310.04
2017-11-21T05:13:59.173Z,99311.34
2017-11-21T05:16:25.603Z,99306.27
2017-11-21T05:18:51.970Z,99310.92
2017-11-21T05:21:18.359Z,99298.30
2017-11-21T05:23:45.434Z,99298.45
2017-11-21T05:26:11.982Z,99299.84
2017-11-21T05:28:38.312Z,99304.96
2017-11-21T05:31:04.740Z,99300.02
2017-11-21T05:33:38.035Z,99290.25
2017-11-21T05:36:04.389Z,99285.05
2017-11-21T05:38:30.729Z,99280.79
2017-11-21T05:40:57.825Z,99272.16
2017-11-21T05:43:24.231Z,99263.41
2017-11-21T05:45:51.325Z,99266.45
2017-11-21T05:48:17.685Z,99261.47
2017-11-21T05:50:44.100Z,99264.86
2017-11-21T05:53:10.489Z,99269.79
2017-11-21T05:55:36.821Z,99266.23
2017-11-21T05:58:03.186Z,99266.19
2017-11-21T06:00:29.548Z,99266.72
2017-11-21T06:02:55.898Z,99273.35
2017-11-21T06:05:22.266Z,99263.63
2017-11-21T06:07:48.600Z,99268.59
2017-11-21T06:10:14.964Z,99272.84
2017-11-21T06:12:41.450Z,99275.21
2017-11-21T06:15:07.984Z,99278.47
2017-11-21T06:17:34.545Z,99275.61
2017-11-21T06:20:01.074Z,99283.45
2017-11-21T06:22:27.479Z,99281.02
2017-11-21T06:24:53.826Z,99277.58
2017-11-21T06:27:20.258Z,99272.27
2017-11-21T06:29:47.323Z,99280.70
2017-11-21T06:32:13.773Z,99270.47
2017-11-21T06:34:40.086Z,99271.91
2017-11-21T06:37:06.363Z,99268.43
2017-11-21T06:39:32.715Z,99266.53
2017-11-21T06:41:59.044Z,99266.84
2017-11-21T06:44:25.496Z,99273.65
2017-11-21T06:46:51.838Z,99271.83
2017-11-21T06:49:18.167Z,99273.67
2017-11-21T06:51:44.598Z,99279.52
2017-11-21T06:54:10.983Z,99277.41
2017-11-21T06:56:37.340Z,99276.09
2017-11-21T06:59:03.711Z,99281.97
2017-11-21T07:01:30.210Z,99281.77
2017-11-21T07:03:57.423Z,99281.97
2017-11-21T07:06:24.609Z,99279.09
2017-11-21T07:08:50.993Z,99265.83
2017-11-21T07:11:17.344Z,99285.33
2017-11-21T07:13:43.775Z,99283.53
2017-11-21T07:16:10.232Z,99276.59
2017-11-21T07:18:36.555Z,99270.75
2017-11-21T07:21:02.847Z,99280.56
2017-11-21T07:23:29.334Z,99274.38
2017-11-21T07:25:55.832Z,99274.91
2017-11-21T07:28:22.308Z,99272.36
2017-11-21T07:30:48.640Z,99273.02
2017-11-21T07:33:15.883Z,99271.84
2017-11-21T07:35:43.221Z,99274.86
2017-11-21T07:38:09.593Z,99274.28
2017-11-21T07:40:36.717Z,99279.44
2017-11-21T07:43:03.092Z,99270.46
2017-11-21T07:45:29.520Z,99270.16
2017-11-21T07:47:55.949Z,99268.86
2017-11-21T07:50:22.997Z,99277.54
2017-11-21T07:52:49.363Z,99274.58
2017-11-21T07:55:15.698Z,99267.35
2017-11-21T07:57:41.991Z,99270.74
2017-11-21T08:00:09.017Z,99276.75
2017-11-21T08:02:36.064Z,99271.28
2017-11-21T08:05:02.365Z,99273.43
2017-11-21T08:07:28.755Z,99267.03
2017-11-21T08:09:55.838Z,99274.84
2017-11-21T08:12:22.168Z,99268.20
2017-11-21T08:14:48.498Z,99270.66
2017-11-21T08:17:14.834Z,99267.23
2017-11-21T08:19:41.198Z,99266.16
2017-11-21T08:22:08.409Z,99268.20
2017-11-21T08:24:34.709Z,99281.00
2017-11-21T08:27:01.796Z,99277.30
2017-11-21T08:29:28.201Z,99284.20
2017-11-21T08:31:54.702Z,99283.89
2017-11-21T08:34:21.091Z,99285.09
2017-11-21T08:36:47.445Z,99286.25
2017-11-21T08:39:13.823Z,99292.98
2017-11-21T08:41:40.166Z,99291.73
2017-11-21T08:44:06.533Z,99264.34
2017-11-21T08:46:32.894Z,99275.27
2017-11-21T08:48:59.216Z,99294.40
2017-11-21T08:51:25.629Z,99286.55
2017-11-21T08:53:51.994Z,99297.69
2017-11-21T08:56:19.142Z,99291.83
2017-11-21T08:58:45.448Z,99292.53
2017-11-21T09:01:11.798Z,99294.66
2017-11-21T09:03:38.173Z,99295.91
2017-11-21T09:06:04.517Z,99288.32
2017-11-21T09:08:30.824Z,99291.39
2017-11-21T09:10:57.170Z,99296.98
2017-11-21T09:13:23.564Z,99280.80
2017-11-21T09:15:50.678Z,99286.59
2017-11-21T09:18:17.047Z,99297.86
2017-11-21T09:20:43.382Z,99293.71
2017-11-21T09:23:10.458Z,99300.75
2017-11-21T09:25:37.633Z,99295.52
2017-11-21T09:28:03.977Z,99299.66
2017-11-21T09:30:30.279Z,99286.59
2017-11-21T09:32:56.595Z,99296.38
2017-11-21T09:35:23.035Z,99292.04
2017-11-21T09:37:49.373Z,99293.38
2017-11-21T09:40:16.507Z,99285.45
2017-11-21T09:42:42.851Z,99293.63
2017-11-21T09:45:09.106Z,99293.53
2017-11-21T09:47:36.061Z,99293.27
2017-11-21T09:50:02.393Z,99287.16
2017-11-21T09:52:28.746Z,99289.80
2017-11-21T09:54:55.089Z,99292.70
2017-11-21T09:57:21.488Z,99287.41
2017-11-21T09:59:47.822Z,99298.25
2017-11-21T10:02:14.181Z,99290.53
2017-11-21T10:04:41.440Z,99284.66
2017-11-21T10:07:07.863Z,99285.11
2017-11-21T10:09:34.337Z,99290.11
2017-11-21T10:12:00.700Z,99282.52
2017-11-21T10:14:27.052Z,99297.22
2017-11-21T10:16:53.433Z,99289.01
2017-11-21T10:19:19.786Z,99293.59
2017-11-21T10:21:46.160Z,99285.79
2017-11-21T10:24:12.493Z,99297.68
2017-11-21T10:26:39.569Z,99293.57
2017-11-21T10:29:05.993Z,99302.41
2017-11-21T10:31:32.465Z,99295.45
2017-11-21T10:33:58.805Z,99311.45
2017-11-21T10:36:25.238Z,99307.52
2017-11-21T10:38:51.691Z,99293.03
2017-11-21T10:41:18.112Z,99301.59
2017-11-21T10:43:44.537Z,99297.81
2017-11-21T10:46:10.893Z,99305.63
2017-11-21T10:48:37.230Z,99307.58
2017-11-21T10:51:03.596Z,99303.30
2017-11-21T10:53:29.938Z,99302.94
2017-11-21T10:55:57.124Z,99307.72
2017-11-21T10:58:23.473Z,99306.09
2017-11-21T11:00:49.846Z,99305.00
2017-11-21T11:03:16.196Z,99304.60
2017-11-21T11:05:42.622Z,99301.80
2017-11-21T11:08:08.908Z,99300.13
2017-11-21T11:10:35.268Z,99309.75
2017-11-21T11:13:01.646Z,99297.43
2017-11-21T11:15:28.100Z,99293.73
2017-11-21T11:17:54.390Z,99283.17
2017-11-21T11:20:20.825Z,99289.16
2017-11-21T11:22:47.240Z,99300.08
2017-11-21T11:25:13.643Z,99294.02
2017-11-21T11:27:40.074Z,99292.94
2017-11-21T11:30:06.413Z,99290.17
2017-11-21T11:32:32.808Z,99294.27
2017-11-21T11:34:59.113Z,99289.60
2017-11-21T11:37:25.453Z,99285.11
2017-11-21T11:39:51.808Z,99286.97
2017-11-21T11:42:18.356Z,99304.11
2017-11-21T11:44:44.796Z,99257.27
2017-11-21T11:47:11.382Z,99271.38
2017-11-21T11:49:37.816Z,99299.64
2017-11-21T11:52:04.123Z,99305.86
2017-11-21T11:54:30.534Z,99286.44
2017-11-21T11:56:57.686Z,99288.00
2017-11-21T11:59:24.068Z,99289.26
2017-11-21T12:01:50.441Z,99280.89
2017-11-21T12:04:16.864Z,99282.20
2017-11-21T12:06:43.261Z,99287.93
2017-11-21T12:09:09.642Z,99285.17
2017-11-21T12:11:36.060Z,99286.30
2017-11-21T12:14:02.564Z,99279.71
2017-11-21T12:16:28.911Z,99292.09
2017-11-21T12:18:55.259Z,99290.22
2017-11-21T12:21:21.615Z,99284.99
2017-11-21T12:23:48.013Z,99277.77
2017-11-21T12:26:14.358Z,99287.72
2017-11-21T12:28:40.679Z,99284.70
2017-11-21T12:31:07.024Z,99288.89
2017-11-21T12:33:33.346Z,99285.48
2017-11-21T12:35:59.718Z,99291.47
2017-11-21T12:38:26.831Z,99283.33
2017-11-21T12:40:53.214Z,99287.23
2017-11-21T12:43:19.555Z,99287.81
2017-11-21T12:45:45.887Z,99287.44
2017-11-21T12:48:12.230Z,99286.30
2017-11-21T12:50:38.581Z,99287.45
2017-11-21T12:53:04.893Z,99292.81
2017-11-21T12:55:31.358Z,99286.72
2017-11-21T12:57:57.756Z,99288.97
2017-11-21T13:00:25.103Z,99270.25
2017-11-21T13:02:51.567Z,99290.44
2017-11-21T13:05:17.881Z,99288.23
2017-11-21T13:07:44.262Z,99286.38
2017-11-21T13:10:11.365Z,99292.88
2017-11-21T13:12:37.726Z,99289.66
2017-11-21T13:15:04.107Z,99290.12
2017-11-21T13:17:30.610Z,99291.47
2017-11-21T13:19:57.088Z,99291.72
2017-11-21T13:22:23.624Z,99283.81
2017-11-21T13:24:50.059Z,99283.17
2017-11-21T13:27:16.442Z,99289.75
2017-11-21T13:29:43.469Z,99294.63
2017-11-21T13:32:09.891Z,99282.59
2017-11-21T13:34:36.242Z,99271.55
2017-11-21T13:37:03.283Z,99282.14
2017-11-21T13:39:29.714Z,99281.27
2017-11-21T13:41:56.115Z,99285.25
2017-11-21T13:44:22.513Z,99280.55
2017-11-21T13:46:49.647Z,99289.28
2017-11-21T13:49:16.019Z,99269.80
2017-11-21T13:51:42.564Z,99280.83
2017-11-21T13:54:09.029Z,99261.48
2017-11-21T13:56:35.435Z,99269.81
2017-11-21T13:59:01.795Z,99275.24
2017-11-21T14:01:28.290Z,99277.66
2017-11-21T14:03:54.785Z,99284.22
2017-11-21T14:06:21.202Z,99284.62
2017-11-21T14:08:47.616Z,99276.25
2017-11-21T14:11:13.964Z,99285.52
2017-11-21T14:13:40.345Z,99281.67
2017-11-21T14:16:06.696Z,99280.80
2017-11-21T14:18:33.028Z,99295.61
2017-11-21T14:20:59.389Z,99297.92
2017-11-21T14:23:25.682Z,99278.48
2017-11-21T14:25:52.078Z,99285.49
2017-11-21T14:28:19.190Z,99275.26
2017-11-21T14:30:45.513Z,99281.44
2017-11-21T14:33:11.847Z,99274.72
2017-11-21T14:35:38.183Z,99277.37
2017-11-21T14:38:04.598Z,99280.05
2017-11-21T14:40:30.966Z,99281.85
2017-11-21T14:42:57.358Z,99281.44
2017-11-21T14:45:23.690Z,99277.55
2017-11-21T14:47:50.079Z,99291.08
2017-11-21T14:50:16.545Z,99286.13
2017-11-21T14:52:42.932Z,99285.09
2017-11-21T14:55:09.319Z,99288.68
2017-11-21T14:57:35.741Z,99289.84
2017-11-21T15:00:02.947Z,99293.41
2017-11-21T15:02:29.855Z,99293.35
2017-11-21T15:04:56.477Z,99295.59
2017-11-21T15:07:23.545Z,99292.92
2017-11-21T15:09:49.936Z,99303.98
2017-11-21T15:12:17.019Z,99297.24
2017-11-21T15:14:43.370Z,99294.73
2017-11-21T15:17:09.764Z,99306.00
2017-11-21T15:19:36.163Z,99296.69
2017-11-21T15:22:02.626Z,99324.39
2017-11-21T15:24:29.774Z,99306.64
2017-11-21T15:26:56.923Z,99305.00
2017-11-21T15:29:24.004Z,99308.83
2017-11-21T15:31:50.344Z,99300.66
2017-11-21T15:34:16.681Z,99306.09
2017-11-21T15:36:43.004Z,99298.22
2017-11-21T15:39:09.333Z,99296.41
2017-11-21T15:41:35.736Z,99301.45
2017-11-21T15:44:02.057Z,99284.17
2017-11-21T15:46:29.139Z,99285.55
2017-11-21T15:48:56.668Z,99299.42
2017-11-21T15:51:23.067Z,99294.44
2017-11-21T15:53:49.435Z,99284.70
2017-11-21T15:56:16.572Z,99294.80
2017-11-21T15:58:42.940Z,99292.06
2017-11-21T16:01:09.438Z,99292.02
2017-11-21T16:03:35.822Z,99295.76
2017-11-21T16:06:02.275Z,99286.88
2017-11-21T16:08:28.588Z,99291.97
2017-11-21T16:10:55.009Z,99290.03
2017-11-21T16:13:21.391Z,99286.50
2017-11-21T16:15:47.788Z,99296.88
2017-11-21T16:18:14.130Z,99295.19
2017-11-21T16:20:40.483Z,99295.16
2017-11-21T16:23:06.824Z,99295.42
2017-11-21T16:25:33.142Z,99293.52
2017-11-21T16:27:59.527Z,99293.11
2017-11-21T16:30:25.890Z,99298.25
2017-11-21T16:32:52.244Z,99302.66
2017-11-21T16:35:19.320Z,99294.58
2017-11-21T16:37:46.398Z,99292.57
2017-11-21T16:40:12.743Z,99290.92
2017-11-21T16:42:39.101Z,99294.94
2017-11-21T16:45:05.495Z,99301.07
2017-11-21T16:47:31.845Z,99309.70
2017-11-21T16:49:58.230Z,99312.30
2017-11-21T16:52:24.658Z,99314.02
2017-11-21T16:54:51.048Z,99320.64
2017-11-21T16:57:17.469Z,99304.75
2017-11-21T16:59:43.844Z,99313.26
2017-11-21T17:02:10.271Z,99311.47
2017-11-21T17:04:36.727Z,99309.39
2017-11-21T17:07:03.061Z,99302.59
2017-11-21T17:09:30.113Z,99304.32
2017-11-21T17:11:57.305Z,99302.77
2017-11-21T17:14:23.696Z,99303.72
2017-11-21T17:16:50.905Z,99305.33
2017-11-21T17:19:17.262Z,99297.56
2017-11-21T17:21:43.591Z,99298.81
2017-11-21T17:24:10.041Z,99297.83
2017-11-21T17:26:37.253Z,99308.09
2017-11-21T17:29:03.787Z,99292.10
2017-11-21T17:31:30.287Z,99289.62
2017-11-21T17:33:56.620Z,99290.87
2017-11-21T17:36:23.081Z,99293.69
2017-11-21T17:38:49.485Z,99285.36
2017-11-21T17:41:15.921Z,99289.63
2017-11-21T17:43:42.310Z,99283.05
2017-11-21T17:46:08.821Z,99291.11
2017-11-21T17:48:35.191Z,99295.38
2017-11-21T17:51:02.413Z,99293.29
2017-11-21T17:53:28.896Z,99294.33
2017-11-21T17:55:55.301Z,99294.28
2017-11-21T17:58:21.910Z,99309.59
2017-11-21T18:00:49.202Z,99296.29
2017-11-21T18:03:16.299Z,99302.05
2017-11-21T18:05:42.744Z,99303.77
2017-11-21T18:08:09.222Z,99295.59
2017-11-21T18:10:36.326Z,99304.02
2017-11-21T18:13:02.857Z,99304.08
2017-11-21T18:15:29.217Z,99298.61
2017-11-21T18:17:55.644Z,99314.71
2017-11-21T18:20:22.014Z,99296.47
2017-11-21T18:22:49.131Z,99297.66
2017-11-21T18:25:15.588Z,99302.12
2017-11-21T18:27:42.661Z,99294.16
2017-11-21T18:30:09.039Z,99297.16
2017-11-21T18:32:35.532Z,99304.36
2017-11-21T18:35:01.888Z,99295.97
2017-11-21T18:37:28.690Z,99301.89
2017-11-21T18:39:55.779Z,99288.82
2017-11-21T18:42:22.963Z,99297.03
2017-11-21T18:44:50.114Z,99298.80
2017-11-21T18:47:16.549Z,99306.11
2017-11-21T18:49:42.986Z,99301.86
2017-11-21T18:52:09.441Z,99295.76
2017-11-21T18:54:36.546Z,99296.95
2017-11-21T18:57:02.912Z,99297.04
2017-11-21T18:59:30.055Z,99298.89
2017-11-21T19:01:56.455Z,99290.42
2017-11-21T19:04:22.898Z,99300.79
2017-11-21T19:06:49.225Z,99298.20
2017-11-21T19:09:15.707Z,99304.06
2017-11-21T19:11:42.165Z,99300.22
2017-11-21T19:14:08.721Z,99314.17
2017-11-21T19:16:35.105Z,99302.28
2017-11-21T19:19:02.358Z,99299.18
2017-11-21T19:21:29.564Z,99296.77
2017-11-21T19:23:56.658Z,99297.69
2017-11-21T19:26:23.763Z,99298.50
2017-11-21T19:28:50.164Z,99279.93
2017-11-21T19:31:16.628Z,99308.13
2017-11-21T19:33:42.997Z,99288.14
2017-11-21T19:36:10.112Z,99286.39
2017-11-21T19:38:38.114Z,99305.88
2017-11-21T19:41:05.272Z,99309.14
2017-11-21T19:43:32.684Z,99296.47
2017-11-21T19:45:59.531Z,99293.42
2017-11-21T19:48:26.241Z,99304.08
2017-11-21T19:50:52.702Z,99309.72
2017-11-21T19:53:19.309Z,99309.88
2017-11-21T19:55:46.584Z,99301.38
2017-11-21T19:58:13.087Z,99298.55
2017-11-21T20:00:39.460Z,99295.38
2017-11-21T20:03:05.864Z,99301.35
2017-11-21T20:05:33.040Z,99285.34
2017-11-21T20:08:00.661Z,99286.39
2017-11-21T20:10:27.605Z,99279.25
2017-11-21T20:12:54.625Z,99270.44
2017-11-21T20:15:22.370Z,99275.38
2017-11-21T20:17:49.459Z,99278.17
2017-11-21T20:20:16.811Z,99267.97
2017-11-21T20:22:44.611Z,99252.44
2017-11-21T20:25:11.545Z,99247.27
2017-11-21T20:27:38.912Z,99247.05
2017-11-21T20:30:05.206Z,99251.19
2017-11-21T20:32:32.493Z,99266.63
2017-11-21T20:34:59.225Z,99266.01
2017-11-21T20:37:26.041Z,99273.33
2017-11-21T20:39:53.834Z,99271.92
2017-11-21T20:42:20.704Z,99271.34
2017-11-21T20:44:47.334Z,99263.30
2017-11-21T20:47:14.215Z,99257.80
2017-11-21T20:49:40.926Z,99259.70
2017-11-21T20:52:07.586Z,99263.38
2017-11-21T20:54:34.384Z,99256.77
2017-11-21T20:57:01.053Z,99253.25
2017-11-21T20:59:28.237Z,99253.98
2017-11-21T21:01:55.808Z,99262.48
2017-11-21T21:04:23.274Z,99261.81
2017-11-21T21:06:50.609Z,99253.34
2017-11-21T21:09:17.065Z,99254.63
2017-11-21T21:11:44.198Z,99255.91
2017-11-21T21:14:11.345Z,99257.77
2017-11-21T21:16:38.748Z,99255.29
2017-11-21T21:19:05.424Z,99247.49
2017-11-21T21:21:32.111Z,99248.68
2017-11-21T21:23:58.671Z,99254.30
2017-11-21T21:26:25.373Z,99249.58
2017-11-21T21:28:52.033Z,99175.92
2017-11-21T21:31:18.482Z,99246.00
2017-11-21T21:33:45.113Z,99247.14
2017-11-21T21:36:12.923Z,99253.30
2017-11-21T21:38:40.196Z,99258.58
2017-11-21T21:41:07.204Z,99248.10
2017-11-21T21:43:34.577Z,99247.23
2017-11-21T21:46:01.733Z,99236.81
2017-11-21T21:48:28.273Z,99250.27
2017-11-21T21:50:55.074Z,99245.55
2017-11-21T21:53:21.607Z,99245.90
2017-11-21T21:55:49.251Z,99243.28
2017-11-21T21:58:15.603Z,99250.61
2017-11-21T22:00:45.226Z,99260.77
2017-11-21T22:03:11.563Z,99245.63
2017-11-21T22:05:37.862Z,99240.96
2017-11-21T22:08:04.202Z,99255.48
2017-11-21T22:10:31.663Z,99254.67
2017-11-21T22:12:58.853Z,99265.44
2017-11-21T22:15:25.990Z,99258.14
2017-11-21T22:17:52.400Z,99265.47
2017-11-21T22:20:18.781Z,99257.80
2017-11-21T22:22:45.114Z,99249.17
2017-11-21T22:25:17.694Z,99267.23
2017-11-21T22:27:44.924Z,99259.95
2017-11-21T22:30:12.490Z,99262.09
2017-11-21T22:32:39.600Z,99268.28
2017-11-21T22:35:06.736Z,99272.33
2017-11-21T22:37:33.145Z,99263.62
2017-11-21T22:40:00.177Z,99273.01
2017-11-21T22:42:26.478Z,99268.94
2017-11-21T22:44:53.048Z,99276.08
2017-11-21T22:47:19.364Z,99258.28
2017-11-21T22:49:47.179Z,99286.62
2017-11-21T22:52:13.493Z,99276.34
2017-11-21T22:54:39.827Z,99275.19
2017-11-21T22:57:06.768Z,99273.82
2017-11-21T22:59:33.351Z,99275.45
2017-11-21T23:01:59.726Z,99264.85
2017-11-21T23:04:26.209Z,99277.95
2017-11-21T23:06:52.629Z,99279.44
2017-11-21T23:09:19.094Z,99289.60
2017-11-21T23:11:45.559Z,99274.05
2017-11-21T23:14:11.877Z,99276.15
2017-11-21T23:16:39.052Z,99282.16
2017-11-21T23:19:06.279Z,99277.20
2017-11-21T23:21:32.798Z,99264.53
2017-11-21T23:23:59.102Z,99269.01
2017-11-21T23:26:25.499Z,99258.92
2017-11-21T23:28:52.663Z,99261.30
2017-11-21T23:31:19.842Z,99239.98
2017-11-21T23:33:46.193Z,99253.57
2017-11-21T23:36:12.670Z,99259.08
2017-11-21T23:38:39.747Z,99270.59
2017-11-21T23:41:06.123Z,99268.56
2017-11-21T23:43:33.236Z,99255.33
2017-11-21T23:45:59.592Z,99253.78
2017-11-21T23:48:26.649Z,99263.72
2017-11-21T23:50:52.976Z,99254.70
2017-11-21T23:53:19.384Z,99264.22
2017-11-21T23:55:45.850Z,99254.08
2017-11-21T23:58:12.207Z,99254.37
